Lenexa, KS (66216)

4:47 PM CST on November 23, 2014 (GMT -0600)
The Koellers | Change Station
CLOSE
Current Station
Personal Weather Station
Location: Northern Lenexa, KS
Elevation: 1038 ft
Nearby Weather Stations

Elev 1038 ft 38.98 °N, 94.75 °W | Updated 1 second ago

Rain
Rain
46.4 °F
Feels Like 42 °F
N
8.1
Wind Variable Wind from North
Gusts 8.1 mph

Today
High -- | Low -- °F
--% Chance of Precip.
Yesterday
High -- | Low -- °F
Precip. -- in
7:10 AM 4:59 PM
New Moon, 2% visible
Pressure 29.35 in
Visibility 9.0 miles
Clouds Overcast 1000 ft
Windchill 42 °F
Dew Point 45 °F
Humidity 95%
Rainfall 0.11 in
Snow Depth Not available.
UV 0 out of 12
Pollen .10 out of 12
Air Quality Not available.
Flu Activity Not available.
SPECI KMKC 232228Z 34014G28KT 9SM OVC010 10/07 A2935 RMK AO2 PK WND 32028/2221 RAE06 CIG 008V012 P0000 T01000072

More Conditions Fewer Conditions

Pressure 29.35 in
Visibility 9.0 miles
Clouds Overcast 1000 ft
Windchill 42 °F
Dew Point 45 °F
Humidity 95%
Rainfall 0.11 in
Snow Depth Not available.
UV 0 out of 12
Pollen .10 out of 12
Air Quality Not available.
Flu Activity Not available.
SPECI KMKC 232228Z 34014G28KT 9SM OVC010 10/07 A2935 RMK AO2 PK WND 32028/2221 RAE06 CIG 008V012 P0000 T01000072

More Conditions Fewer Conditions

10-Day Weather Forecast

Almanac

Astronomy

Nov. 23, 2014 Rise Set
Actual Time
Civil Twilight
Nautical Twilight
Astronomical Twilight
Moon
Length of Visible Light
Length of Day
Tomorrow will be .
, % of the Moon is Illuminated

Today's Extremes

State Highs State Lows

Community

WunderPhotos

Upload Photos

1,773,187 photos uploaded!

WunderBlogs® & News

Nearby

Air Quality

  Air Quality AQ Index Pollutant
Not available.

Snow Depth

Station Depth Elevation

Earthquake Activity

City Distance Mag. Time & Date
Minimum magnitude displayed is 2.5.

Coastal Water Temperatures

Place Temperature

Nearby Weather Stations